sensor_id;sensor_type;location;lat;lon;timestamp;P1;durP1;ratioP1;P2;durP2;ratioP2
17595;SDS011;8916;47.086;15.920;2023-04-25T00:00:08;6.10;;;3.17;;
17595;SDS011;8916;47.086;15.920;2023-04-25T00:02:38;5.20;;;3.00;;
17595;SDS011;8916;47.086;15.920;2023-04-25T00:05:08;4.80;;;2.83;;
17595;SDS011;8916;47.086;15.920;2023-04-25T00:07:38;5.90;;;2.65;;
17595;SDS011;8916;47.086;15.920;2023-04-25T00:10:10;5.28;;;2.55;;
17595;SDS011;8916;47.086;15.920;2023-04-25T00:12:40;6.10;;;2.55;;
17595;SDS011;8916;47.086;15.920;2023-04-25T00:15:09;3.88;;;2.38;;
17595;SDS011;8916;47.086;15.920;2023-04-25T00:17:39;4.93;;;2.90;;
17595;SDS011;8916;47.086;15.920;2023-04-25T00:20:10;6.13;;;2.63;;
17595;SDS011;8916;47.086;15.920;2023-04-25T00:22:40;12.20;;;3.85;;
17595;SDS011;8916;47.086;15.920;2023-04-25T00:25:10;6.88;;;3.17;;
17595;SDS011;8916;47.086;15.920;2023-04-25T00:27:39;5.38;;;3.08;;
17595;SDS011;8916;47.086;15.920;2023-04-25T00:30:09;9.07;;;3.45;;
17595;SDS011;8916;47.086;15.920;2023-04-25T00:32:40;6.00;;;3.00;;
17595;SDS011;8916;47.086;15.920;2023-04-25T00:35:09;10.35;;;3.15;;
17595;SDS011;8916;47.086;15.920;2023-04-25T00:37:38;6.93;;;2.83;;
17595;SDS011;8916;47.086;15.920;2023-04-25T00:40:08;6.15;;;2.85;;
17595;SDS011;8916;47.086;15.920;2023-04-25T00:42:39;5.10;;;2.22;;
17595;SDS011;8916;47.086;15.920;2023-04-25T00:45:10;6.57;;;2.25;;
17595;SDS011;8916;47.086;15.920;2023-04-25T00:47:42;4.57;;;2.22;;
17595;SDS011;8916;47.086;15.920;2023-04-25T00:50:12;4.57;;;2.75;;
17595;SDS011;8916;47.086;15.920;2023-04-25T00:52:43;5.68;;;2.88;;
17595;SDS011;8916;47.086;15.920;2023-04-25T00:55:14;4.63;;;2.28;;
17595;SDS011;8916;47.086;15.920;2023-04-25T00:57:45;6.13;;;2.70;;
17595;SDS011;8916;47.086;15.920;2023-04-25T01:00:15;4.53;;;2.85;;
17595;SDS011;8916;47.086;15.920;2023-04-25T01:02:45;9.35;;;2.53;;
17595;SDS011;8916;47.086;15.920;2023-04-25T01:05:15;6.45;;;3.25;;
17595;SDS011;8916;47.086;15.920;2023-04-25T01:07:46;4.65;;;2.22;;
17595;SDS011;8916;47.086;15.920;2023-04-25T01:10:16;5.43;;;2.60;;
17595;SDS011;8916;47.086;15.920;2023-04-25T01:12:46;2.80;;;1.92;;
17595;SDS011;8916;47.086;15.920;2023-04-25T01:15:15;6.68;;;2.35;;
17595;SDS011;8916;47.086;15.920;2023-04-25T01:17:44;5.45;;;2.22;;
17595;SDS011;8916;47.086;15.920;2023-04-25T01:20:13;3.15;;;1.95;;
17595;SDS011;8916;47.086;15.920;2023-04-25T01:22:45;3.28;;;1.98;;
17595;SDS011;8916;47.086;15.920;2023-04-25T01:25:14;3.92;;;2.00;;
17595;SDS011;8916;47.086;15.920;2023-04-25T01:27:44;3.17;;;1.88;;
17595;SDS011;8916;47.086;15.920;2023-04-25T01:30:13;3.67;;;2.08;;
17595;SDS011;8916;47.086;15.920;2023-04-25T01:32:43;3.72;;;1.98;;
17595;SDS011;8916;47.086;15.920;2023-04-25T01:35:12;3.67;;;2.63;;
17595;SDS011;8916;47.086;15.920;2023-04-25T01:37:42;5.68;;;2.25;;
17595;SDS011;8916;47.086;15.920;2023-04-25T01:40:13;5.20;;;1.83;;
17595;SDS011;8916;47.086;15.920;2023-04-25T01:42:42;1.55;;;1.45;;
17595;SDS011;8916;47.086;15.920;2023-04-25T01:45:13;1.88;;;1.38;;
17595;SDS011;8916;47.086;15.920;2023-04-25T01:47:42;3.22;;;1.98;;
17595;SDS011;8916;47.086;15.920;2023-04-25T01:50:16;2.58;;;1.55;;
17595;SDS011;8916;47.086;15.920;2023-04-25T01:52:49;3.72;;;2.00;;
17595;SDS011;8916;47.086;15.920;2023-04-25T01:55:19;4.63;;;2.05;;
17595;SDS011;8916;47.086;15.920;2023-04-25T01:57:56;3.50;;;2.13;;
17595;SDS011;8916;47.086;15.920;2023-04-25T02:00:40;3.90;;;2.10;;
17595;SDS011;8916;47.086;15.920;2023-04-25T02:03:09;3.35;;;1.80;;
17595;SDS011;8916;47.086;15.920;2023-04-25T02:05:39;3.28;;;2.13;;
17595;SDS011;8916;47.086;15.920;2023-04-25T02:08:13;2.70;;;1.77;;
17595;SDS011;8916;47.086;15.920;2023-04-25T02:10:42;4.50;;;2.20;;
17595;SDS011;8916;47.086;15.920;2023-04-25T02:13:18;3.53;;;2.35;;
17595;SDS011;8916;47.086;15.920;2023-04-25T02:16:05;5.15;;;2.33;;
17595;SDS011;8916;47.086;15.920;2023-04-25T02:18:38;3.88;;;1.85;;
17595;SDS011;8916;47.086;15.920;2023-04-25T02:21:07;2.80;;;1.83;;
17595;SDS011;8916;47.086;15.920;2023-04-25T02:23:37;3.28;;;1.63;;
17595;SDS011;8916;47.086;15.920;2023-04-25T02:26:06;5.30;;;2.17;;
17595;SDS011;8916;47.086;15.920;2023-04-25T02:28:35;4.15;;;1.85;;
17595;SDS011;8916;47.086;15.920;2023-04-25T02:31:05;1.73;;;1.40;;
17595;SDS011;8916;47.086;15.920;2023-04-25T02:33:34;2.70;;;1.90;;
17595;SDS011;8916;47.086;15.920;2023-04-25T02:36:05;4.75;;;1.95;;
17595;SDS011;8916;47.086;15.920;2023-04-25T02:38:35;5.03;;;1.83;;
17595;SDS011;8916;47.086;15.920;2023-04-25T02:41:06;2.33;;;1.52;;
17595;SDS011;8916;47.086;15.920;2023-04-25T02:43:35;3.25;;;1.75;;
17595;SDS011;8916;47.086;15.920;2023-04-25T02:46:04;3.80;;;1.80;;
17595;SDS011;8916;47.086;15.920;2023-04-25T02:48:33;2.90;;;1.92;;
17595;SDS011;8916;47.086;15.920;2023-04-25T02:51:02;10.20;;;2.38;;
17595;SDS011;8916;47.086;15.920;2023-04-25T02:53:31;4.78;;;2.38;;
17595;SDS011;8916;47.086;15.920;2023-04-25T02:56:00;4.25;;;1.88;;
17595;SDS011;8916;47.086;15.920;2023-04-25T02:58:31;2.80;;;1.95;;
17595;SDS011;8916;47.086;15.920;2023-04-25T03:01:00;3.03;;;1.77;;
17595;SDS011;8916;47.086;15.920;2023-04-25T03:03:29;5.22;;;2.28;;
17595;SDS011;8916;47.086;15.920;2023-04-25T03:05:58;2.70;;;1.88;;
17595;SDS011;8916;47.086;15.920;2023-04-25T03:08:31;2.97;;;1.90;;
17595;SDS011;8916;47.086;15.920;2023-04-25T03:11:02;2.53;;;1.88;;
17595;SDS011;8916;47.086;15.920;2023-04-25T03:13:32;4.70;;;1.75;;
17595;SDS011;8916;47.086;15.920;2023-04-25T03:16:02;4.47;;;2.25;;
17595;SDS011;8916;47.086;15.920;2023-04-25T03:18:31;4.50;;;2.00;;
17595;SDS011;8916;47.086;15.920;2023-04-25T03:21:00;4.07;;;2.10;;
17595;SDS011;8916;47.086;15.920;2023-04-25T03:23:30;2.75;;;2.10;;
17595;SDS011;8916;47.086;15.920;2023-04-25T03:26:00;2.40;;;1.90;;
17595;SDS011;8916;47.086;15.920;2023-04-25T03:28:30;3.15;;;1.95;;
17595;SDS011;8916;47.086;15.920;2023-04-25T03:31:00;2.40;;;1.65;;
17595;SDS011;8916;47.086;15.920;2023-04-25T03:33:29;5.57;;;2.00;;
17595;SDS011;8916;47.086;15.920;2023-04-25T03:35:58;3.65;;;1.95;;
17595;SDS011;8916;47.086;15.920;2023-04-25T03:38:29;3.45;;;1.80;;
17595;SDS011;8916;47.086;15.920;2023-04-25T03:40:59;3.70;;;2.10;;
17595;SDS011;8916;47.086;15.920;2023-04-25T03:43:38;3.47;;;2.10;;
17595;SDS011;8916;47.086;15.920;2023-04-25T03:46:12;9.52;;;3.10;;
17595;SDS011;8916;47.086;15.920;2023-04-25T03:48:42;7.05;;;2.97;;
17595;SDS011;8916;47.086;15.920;2023-04-25T03:51:18;8.77;;;3.25;;
17595;SDS011;8916;47.086;15.920;2023-04-25T03:53:47;10.98;;;3.72;;
17595;SDS011;8916;47.086;15.920;2023-04-25T03:56:37;18.48;;;3.97;;
17595;SDS011;8916;47.086;15.920;2023-04-25T03:59:15;13.25;;;3.42;;
17595;SDS011;8916;47.086;15.920;2023-04-25T04:01:46;5.43;;;2.30;;
17595;SDS011;8916;47.086;15.920;2023-04-25T04:04:15;7.18;;;2.60;;
17595;SDS011;8916;47.086;15.920;2023-04-25T04:06:45;9.07;;;3.55;;
17595;SDS011;8916;47.086;15.920;2023-04-25T04:09:19;5.70;;;2.75;;
17595;SDS011;8916;47.086;15.920;2023-04-25T04:11:48;5.32;;;3.03;;
17595;SDS011;8916;47.086;15.920;2023-04-25T04:14:17;10.85;;;2.67;;
17595;SDS011;8916;47.086;15.920;2023-04-25T04:16:51;5.80;;;2.67;;
17595;SDS011;8916;47.086;15.920;2023-04-25T04:19:21;7.55;;;3.30;;
17595;SDS011;8916;47.086;15.920;2023-04-25T04:21:59;6.57;;;3.10;;
17595;SDS011;8916;47.086;15.920;2023-04-25T04:24:28;19.35;;;3.90;;
17595;SDS011;8916;47.086;15.920;2023-04-25T04:27:02;16.77;;;2.70;;
17595;SDS011;8916;47.086;15.920;2023-04-25T04:32:41;4.63;;;2.78;;
17595;SDS011;8916;47.086;15.920;2023-04-25T04:35:10;9.25;;;2.83;;
17595;SDS011;8916;47.086;15.920;2023-04-25T04:37:40;5.20;;;2.75;;
17595;SDS011;8916;47.086;15.920;2023-04-25T04:40:11;4.72;;;2.78;;
17595;SDS011;8916;47.086;15.920;2023-04-25T04:42:48;8.77;;;3.55;;
17595;SDS011;8916;47.086;15.920;2023-04-25T04:45:43;10.88;;;3.67;;
17595;SDS011;8916;47.086;15.920;2023-04-25T04:48:32;23.93;;;4.20;;
17595;SDS011;8916;47.086;15.920;2023-04-25T04:51:18;18.45;;;6.18;;
17595;SDS011;8916;47.086;15.920;2023-04-25T04:53:53;21.20;;;5.45;;
17595;SDS011;8916;47.086;15.920;2023-04-25T04:56:50;16.92;;;5.85;;
17595;SDS011;8916;47.086;15.920;2023-04-25T04:59:31;18.92;;;6.75;;
17595;SDS011;8916;47.086;15.920;2023-04-25T05:02:08;41.67;;;7.78;;
17595;SDS011;8916;47.086;15.920;2023-04-25T05:05:09;23.88;;;6.90;;
17595;SDS011;8916;47.086;15.920;2023-04-25T05:08:13;15.40;;;7.35;;
17595;SDS011;8916;47.086;15.920;2023-04-25T05:11:05;21.92;;;7.97;;
17595;SDS011;8916;47.086;15.920;2023-04-25T05:13:53;17.02;;;6.88;;
17595;SDS011;8916;47.086;15.920;2023-04-25T05:16:45;24.10;;;7.60;;
17595;SDS011;8916;47.086;15.920;2023-04-25T05:19:38;17.48;;;6.47;;
17595;SDS011;8916;47.086;15.920;2023-04-25T05:22:38;27.33;;;6.90;;
17595;SDS011;8916;47.086;15.920;2023-04-25T05:25:21;14.02;;;6.25;;
17595;SDS011;8916;47.086;15.920;2023-04-25T05:27:50;32.95;;;7.03;;
17595;SDS011;8916;47.086;15.920;2023-04-25T05:30:37;14.45;;;6.30;;
17595;SDS011;8916;47.086;15.920;2023-04-25T05:33:18;19.80;;;7.55;;
17595;SDS011;8916;47.086;15.920;2023-04-25T05:35:48;19.30;;;7.28;;
17595;SDS011;8916;47.086;15.920;2023-04-25T05:38:19;14.05;;;6.90;;
17595;SDS011;8916;47.086;15.920;2023-04-25T05:41:07;23.20;;;9.75;;
17595;SDS011;8916;47.086;15.920;2023-04-25T05:43:42;23.40;;;10.73;;
17595;SDS011;8916;47.086;15.920;2023-04-25T05:46:37;22.30;;;12.88;;
17595;SDS011;8916;47.086;15.920;2023-04-25T05:49:14;17.80;;;10.35;;
17595;SDS011;8916;47.086;15.920;2023-04-25T05:52:24;17.08;;;10.32;;
17595;SDS011;8916;47.086;15.920;2023-04-25T05:55:05;11.00;;;7.65;;
17595;SDS011;8916;47.086;15.920;2023-04-25T05:57:35;8.93;;;5.43;;
17595;SDS011;8916;47.086;15.920;2023-04-25T06:00:06;5.63;;;3.90;;
17595;SDS011;8916;47.086;15.920;2023-04-25T06:02:39;7.13;;;4.72;;
17595;SDS011;8916;47.086;15.920;2023-04-25T06:05:11;6.57;;;4.55;;
17595;SDS011;8916;47.086;15.920;2023-04-25T06:07:41;6.88;;;3.83;;
17595;SDS011;8916;47.086;15.920;2023-04-25T06:10:12;4.38;;;3.30;;
17595;SDS011;8916;47.086;15.920;2023-04-25T06:12:42;4.70;;;3.38;;
17595;SDS011;8916;47.086;15.920;2023-04-25T06:15:12;4.53;;;2.55;;
17595;SDS011;8916;47.086;15.920;2023-04-25T06:17:55;4.10;;;2.20;;
17595;SDS011;8916;47.086;15.920;2023-04-25T06:20:24;3.92;;;2.40;;
17595;SDS011;8916;47.086;15.920;2023-04-25T06:22:56;4.35;;;2.60;;
17595;SDS011;8916;47.086;15.920;2023-04-25T06:25:43;5.47;;;2.70;;
17595;SDS011;8916;47.086;15.920;2023-04-25T06:28:13;3.35;;;2.53;;
17595;SDS011;8916;47.086;15.920;2023-04-25T06:30:43;2.65;;;1.80;;
17595;SDS011;8916;47.086;15.920;2023-04-25T06:33:17;3.28;;;2.08;;
17595;SDS011;8916;47.086;15.920;2023-04-25T06:35:46;2.90;;;2.10;;
17595;SDS011;8916;47.086;15.920;2023-04-25T06:38:21;2.88;;;1.60;;
17595;SDS011;8916;47.086;15.920;2023-04-25T06:40:53;1.85;;;1.40;;
17595;SDS011;8916;47.086;15.920;2023-04-25T06:43:22;3.15;;;1.75;;
17595;SDS011;8916;47.086;15.920;2023-04-25T06:46:14;1.80;;;1.48;;
17595;SDS011;8916;47.086;15.920;2023-04-25T06:48:46;2.65;;;1.67;;
17595;SDS011;8916;47.086;15.920;2023-04-25T06:51:18;3.10;;;1.90;;
17595;SDS011;8916;47.086;15.920;2023-04-25T06:53:51;2.75;;;1.60;;
17595;SDS011;8916;47.086;15.920;2023-04-25T06:56:29;2.33;;;1.70;;
17595;SDS011;8916;47.086;15.920;2023-04-25T06:59:04;1.40;;;1.00;;
17595;SDS011;8916;47.086;15.920;2023-04-25T07:01:36;2.35;;;1.70;;
17595;SDS011;8916;47.086;15.920;2023-04-25T07:04:10;1.50;;;1.27;;
17595;SDS011;8916;47.086;15.920;2023-04-25T07:06:45;2.33;;;1.20;;
17595;SDS011;8916;47.086;15.920;2023-04-25T07:09:18;1.95;;;1.50;;
17595;SDS011;8916;47.086;15.920;2023-04-25T07:11:50;1.67;;;1.17;;
17595;SDS011;8916;47.086;15.920;2023-04-25T07:14:20;1.02;;;0.93;;
17595;SDS011;8916;47.086;15.920;2023-04-25T07:16:49;1.88;;;1.15;;
17595;SDS011;8916;47.086;15.920;2023-04-25T07:19:19;1.50;;;0.73;;
17595;SDS011;8916;47.086;15.920;2023-04-25T07:21:48;0.90;;;0.60;;
17595;SDS011;8916;47.086;15.920;2023-04-25T07:24:21;0.95;;;0.57;;
17595;SDS011;8916;47.086;15.920;2023-04-25T07:26:52;1.25;;;0.65;;
17595;SDS011;8916;47.086;15.920;2023-04-25T07:29:29;1.83;;;1.10;;
17595;SDS011;8916;47.086;15.920;2023-04-25T07:32:00;0.75;;;0.75;;
17595;SDS011;8916;47.086;15.920;2023-04-25T07:34:29;0.73;;;0.73;;
17595;SDS011;8916;47.086;15.920;2023-04-25T07:36:59;1.08;;;0.70;;
17595;SDS011;8916;47.086;15.920;2023-04-25T07:39:36;1.33;;;0.80;;
17595;SDS011;8916;47.086;15.920;2023-04-25T07:42:07;1.20;;;0.57;;
17595;SDS011;8916;47.086;15.920;2023-04-25T07:44:40;0.65;;;0.63;;
17595;SDS011;8916;47.086;15.920;2023-04-25T07:47:12;0.82;;;0.57;;
17595;SDS011;8916;47.086;15.920;2023-04-25T07:49:43;0.75;;;0.70;;
17595;SDS011;8916;47.086;15.920;2023-04-25T07:52:16;0.90;;;0.80;;
17595;SDS011;8916;47.086;15.920;2023-04-25T07:54:51;0.75;;;0.68;;
17595;SDS011;8916;47.086;15.920;2023-04-25T07:57:30;1.63;;;0.80;;
17595;SDS011;8916;47.086;15.920;2023-04-25T07:59:59;1.05;;;0.60;;
17595;SDS011;8916;47.086;15.920;2023-04-25T08:02:28;0.95;;;0.60;;
17595;SDS011;8916;47.086;15.920;2023-04-25T08:04:58;3.83;;;0.65;;
17595;SDS011;8916;47.086;15.920;2023-04-25T08:07:27;0.95;;;0.70;;
17595;SDS011;8916;47.086;15.920;2023-04-25T08:10:01;1.05;;;0.90;;
17595;SDS011;8916;47.086;15.920;2023-04-25T08:12:34;1.25;;;0.90;;
17595;SDS011;8916;47.086;15.920;2023-04-25T08:15:04;1.75;;;1.02;;
17595;SDS011;8916;47.086;15.920;2023-04-25T08:17:38;1.30;;;0.88;;
17595;SDS011;8916;47.086;15.920;2023-04-25T08:20:07;0.90;;;0.60;;
17595;SDS011;8916;47.086;15.920;2023-04-25T08:22:38;1.05;;;0.90;;
17595;SDS011;8916;47.086;15.920;2023-04-25T08:25:19;1.13;;;0.90;;
17595;SDS011;8916;47.086;15.920;2023-04-25T08:27:50;0.80;;;0.65;;
17595;SDS011;8916;47.086;15.920;2023-04-25T08:30:21;1.48;;;0.98;;
17595;SDS011;8916;47.086;15.920;2023-04-25T08:32:51;1.55;;;0.95;;
17595;SDS011;8916;47.086;15.920;2023-04-25T08:35:40;1.02;;;0.82;;
17595;SDS011;8916;47.086;15.920;2023-04-25T08:38:09;0.85;;;0.65;;
17595;SDS011;8916;47.086;15.920;2023-04-25T08:40:39;0.93;;;0.73;;
17595;SDS011;8916;47.086;15.920;2023-04-25T08:43:18;0.77;;;0.70;;
17595;SDS011;8916;47.086;15.920;2023-04-25T08:45:48;3.47;;;0.77;;
17595;SDS011;8916;47.086;15.920;2023-04-25T08:48:35;1.27;;;0.90;;
17595;SDS011;8916;47.086;15.920;2023-04-25T08:51:05;1.33;;;0.80;;
17595;SDS011;8916;47.086;15.920;2023-04-25T08:53:41;2.33;;;0.80;;
17595;SDS011;8916;47.086;15.920;2023-04-25T08:56:13;0.88;;;0.60;;
17595;SDS011;8916;47.086;15.920;2023-04-25T08:58:49;3.00;;;0.73;;
17595;SDS011;8916;47.086;15.920;2023-04-25T09:01:18;1.58;;;0.95;;
17595;SDS011;8916;47.086;15.920;2023-04-25T09:03:52;1.15;;;0.80;;
17595;SDS011;8916;47.086;15.920;2023-04-25T09:06:22;0.65;;;0.60;;
17595;SDS011;8916;47.086;15.920;2023-04-25T09:08:53;1.10;;;0.93;;
17595;SDS011;8916;47.086;15.920;2023-04-25T09:11:22;3.47;;;1.20;;
17595;SDS011;8916;47.086;15.920;2023-04-25T09:13:56;2.33;;;1.10;;
17595;SDS011;8916;47.086;15.920;2023-04-25T09:16:59;0.70;;;0.70;;
17595;SDS011;8916;47.086;15.920;2023-04-25T09:19:48;0.70;;;0.70;;
17595;SDS011;8916;47.086;15.920;2023-04-25T09:22:26;1.73;;;1.02;;
17595;SDS011;8916;47.086;15.920;2023-04-25T09:24:55;0.70;;;0.60;;
17595;SDS011;8916;47.086;15.920;2023-04-25T09:27:28;1.48;;;0.85;;
17595;SDS011;8916;47.086;15.920;2023-04-25T09:30:17;0.75;;;0.60;;
17595;SDS011;8916;47.086;15.920;2023-04-25T09:33:03;1.63;;;0.75;;
17595;SDS011;8916;47.086;15.920;2023-04-25T09:35:35;1.05;;;0.75;;
17595;SDS011;8916;47.086;15.920;2023-04-25T09:38:09;1.30;;;0.70;;
17595;SDS011;8916;47.086;15.920;2023-04-25T09:40:58;0.85;;;0.70;;
17595;SDS011;8916;47.086;15.920;2023-04-25T09:43:47;0.82;;;0.70;;
17595;SDS011;8916;47.086;15.920;2023-04-25T09:46:20;2.95;;;0.80;;
17595;SDS011;8916;47.086;15.920;2023-04-25T09:48:55;0.95;;;0.70;;
17595;SDS011;8916;47.086;15.920;2023-04-25T09:51:32;2.05;;;0.80;;
17595;SDS011;8916;47.086;15.920;2023-04-25T09:54:01;1.17;;;0.80;;
17595;SDS011;8916;47.086;15.920;2023-04-25T09:56:46;1.45;;;0.55;;
17595;SDS011;8916;47.086;15.920;2023-04-25T09:59:20;0.65;;;0.65;;
17595;SDS011;8916;47.086;15.920;2023-04-25T10:01:52;0.77;;;0.70;;
17595;SDS011;8916;47.086;15.920;2023-04-25T10:04:32;2.13;;;0.70;;
17595;SDS011;8916;47.086;15.920;2023-04-25T10:07:08;0.70;;;0.65;;
17595;SDS011;8916;47.086;15.920;2023-04-25T10:09:37;1.50;;;1.10;;
17595;SDS011;8916;47.086;15.920;2023-04-25T10:12:08;2.25;;;0.98;;
17595;SDS011;8916;47.086;15.920;2023-04-25T10:14:38;0.93;;;0.73;;
17595;SDS011;8916;47.086;15.920;2023-04-25T10:17:10;1.30;;;1.08;;
17595;SDS011;8916;47.086;15.920;2023-04-25T10:19:39;2.85;;;1.02;;
17595;SDS011;8916;47.086;15.920;2023-04-25T10:22:10;0.65;;;0.65;;
17595;SDS011;8916;47.086;15.920;2023-04-25T10:24:45;0.60;;;0.60;;
17595;SDS011;8916;47.086;15.920;2023-04-25T10:27:15;1.48;;;0.90;;
17595;SDS011;8916;47.086;15.920;2023-04-25T10:29:44;0.93;;;0.70;;
17595;SDS011;8916;47.086;15.920;2023-04-25T10:32:15;1.50;;;1.13;;
17595;SDS011;8916;47.086;15.920;2023-04-25T10:34:45;1.75;;;1.00;;
17595;SDS011;8916;47.086;15.920;2023-04-25T10:37:15;1.60;;;1.05;;
17595;SDS011;8916;47.086;15.920;2023-04-25T10:39:44;0.73;;;0.68;;
17595;SDS011;8916;47.086;15.920;2023-04-25T10:42:14;1.58;;;0.63;;
17595;SDS011;8916;47.086;15.920;2023-04-25T10:44:47;1.10;;;0.90;;
17595;SDS011;8916;47.086;15.920;2023-04-25T10:47:35;1.88;;;1.00;;
17595;SDS011;8916;47.086;15.920;2023-04-25T10:50:13;0.80;;;0.70;;
17595;SDS011;8916;47.086;15.920;2023-04-25T10:52:43;1.42;;;0.90;;
17595;SDS011;8916;47.086;15.920;2023-04-25T10:55:12;1.60;;;0.90;;
17595;SDS011;8916;47.086;15.920;2023-04-25T10:57:42;1.30;;;0.88;;
17595;SDS011;8916;47.086;15.920;2023-04-25T11:00:16;2.97;;;1.02;;
17595;SDS011;8916;47.086;15.920;2023-04-25T11:02:51;1.10;;;0.80;;
17595;SDS011;8916;47.086;15.920;2023-04-25T11:05:22;1.23;;;1.13;;
17595;SDS011;8916;47.086;15.920;2023-04-25T11:08:06;1.15;;;0.93;;
17595;SDS011;8916;47.086;15.920;2023-04-25T11:10:43;1.10;;;1.00;;
17595;SDS011;8916;47.086;15.920;2023-04-25T11:13:13;1.27;;;0.65;;
17595;SDS011;8916;47.086;15.920;2023-04-25T11:15:42;0.98;;;0.70;;
17595;SDS011;8916;47.086;15.920;2023-04-25T11:18:16;0.65;;;0.65;;
17595;SDS011;8916;47.086;15.920;2023-04-25T11:20:47;1.48;;;0.98;;
17595;SDS011;8916;47.086;15.920;2023-04-25T11:23:17;0.95;;;0.73;;
17595;SDS011;8916;47.086;15.920;2023-04-25T11:25:48;1.50;;;0.98;;
17595;SDS011;8916;47.086;15.920;2023-04-25T11:28:20;1.48;;;0.90;;
17595;SDS011;8916;47.086;15.920;2023-04-25T11:30:52;1.50;;;0.85;;
17595;SDS011;8916;47.086;15.920;2023-04-25T11:33:24;1.80;;;0.90;;
17595;SDS011;8916;47.086;15.920;2023-04-25T11:35:54;1.30;;;0.95;;
17595;SDS011;8916;47.086;15.920;2023-04-25T11:38:24;1.05;;;0.93;;
17595;SDS011;8916;47.086;15.920;2023-04-25T11:40:55;4.10;;;0.90;;
17595;SDS011;8916;47.086;15.920;2023-04-25T11:43:25;3.28;;;1.30;;
17595;SDS011;8916;47.086;15.920;2023-04-25T11:45:54;1.95;;;1.00;;
17595;SDS011;8916;47.086;15.920;2023-04-25T11:48:25;0.98;;;0.90;;
17595;SDS011;8916;47.086;15.920;2023-04-25T11:50:54;1.13;;;0.75;;
17595;SDS011;8916;47.086;15.920;2023-04-25T11:53:23;1.08;;;0.93;;
17595;SDS011;8916;47.086;15.920;2023-04-25T11:55:55;1.65;;;0.98;;
17595;SDS011;8916;47.086;15.920;2023-04-25T11:58:25;0.63;;;0.60;;
17595;SDS011;8916;47.086;15.920;2023-04-25T12:00:54;2.15;;;1.05;;
17595;SDS011;8916;47.086;15.920;2023-04-25T12:03:29;1.02;;;0.85;;
17595;SDS011;8916;47.086;15.920;2023-04-25T12:06:02;1.58;;;0.90;;
17595;SDS011;8916;47.086;15.920;2023-04-25T12:08:32;2.33;;;1.17;;
17595;SDS011;8916;47.086;15.920;2023-04-25T12:11:02;1.13;;;0.90;;
17595;SDS011;8916;47.086;15.920;2023-04-25T12:13:32;1.55;;;0.98;;
17595;SDS011;8916;47.086;15.920;2023-04-25T12:16:01;1.30;;;1.02;;
17595;SDS011;8916;47.086;15.920;2023-04-25T12:18:31;1.13;;;0.90;;
17595;SDS011;8916;47.086;15.920;2023-04-25T12:21:07;6.10;;;0.83;;
17595;SDS011;8916;47.086;15.920;2023-04-25T12:23:38;1.77;;;0.98;;
17595;SDS011;8916;47.086;15.920;2023-04-25T12:26:08;1.98;;;0.65;;
17595;SDS011;8916;47.086;15.920;2023-04-25T12:28:38;1.75;;;1.05;;
17595;SDS011;8916;47.086;15.920;2023-04-25T12:31:07;1.35;;;1.02;;
17595;SDS011;8916;47.086;15.920;2023-04-25T12:33:38;1.52;;;0.90;;
17595;SDS011;8916;47.086;15.920;2023-04-25T12:36:09;1.00;;;0.90;;
17595;SDS011;8916;47.086;15.920;2023-04-25T12:38:40;1.20;;;0.73;;
17595;SDS011;8916;47.086;15.920;2023-04-25T12:41:10;0.82;;;0.68;;
17595;SDS011;8916;47.086;15.920;2023-04-25T12:43:39;0.98;;;0.85;;
17595;SDS011;8916;47.086;15.920;2023-04-25T12:46:09;1.88;;;0.80;;
17595;SDS011;8916;47.086;15.920;2023-04-25T12:48:39;1.00;;;0.77;;
17595;SDS011;8916;47.086;15.920;2023-04-25T12:51:08;0.93;;;0.68;;
17595;SDS011;8916;47.086;15.920;2023-04-25T12:53:37;0.95;;;0.82;;
17595;SDS011;8916;47.086;15.920;2023-04-25T12:56:07;1.08;;;0.63;;
17595;SDS011;8916;47.086;15.920;2023-04-25T12:58:37;1.67;;;0.68;;
17595;SDS011;8916;47.086;15.920;2023-04-25T13:01:06;1.10;;;0.50;;
17595;SDS011;8916;47.086;15.920;2023-04-25T13:03:36;0.75;;;0.63;;
17595;SDS011;8916;47.086;15.920;2023-04-25T13:06:07;0.73;;;0.60;;
17595;SDS011;8916;47.086;15.920;2023-04-25T13:08:36;0.93;;;0.82;;
17595;SDS011;8916;47.086;15.920;2023-04-25T13:11:05;1.35;;;0.80;;
17595;SDS011;8916;47.086;15.920;2023-04-25T13:13:34;1.17;;;0.70;;
17595;SDS011;8916;47.086;15.920;2023-04-25T13:16:04;0.90;;;0.80;;
17595;SDS011;8916;47.086;15.920;2023-04-25T13:18:34;2.42;;;0.70;;
17595;SDS011;8916;47.086;15.920;2023-04-25T13:21:04;1.58;;;0.90;;
17595;SDS011;8916;47.086;15.920;2023-04-25T13:23:34;0.63;;;0.60;;
17595;SDS011;8916;47.086;15.920;2023-04-25T13:26:03;1.23;;;0.90;;
17595;SDS011;8916;47.086;15.920;2023-04-25T13:28:33;0.75;;;0.50;;
17595;SDS011;8916;47.086;15.920;2023-04-25T13:31:05;1.60;;;0.50;;
17595;SDS011;8916;47.086;15.920;2023-04-25T13:33:35;0.93;;;0.80;;
17595;SDS011;8916;47.086;15.920;2023-04-25T13:36:04;0.60;;;0.52;;
17595;SDS011;8916;47.086;15.920;2023-04-25T13:38:35;1.48;;;0.60;;
17595;SDS011;8916;47.086;15.920;2023-04-25T13:41:04;1.75;;;0.82;;
17595;SDS011;8916;47.086;15.920;2023-04-25T13:43:34;1.33;;;0.88;;
17595;SDS011;8916;47.086;15.920;2023-04-25T13:46:04;1.33;;;0.90;;
17595;SDS011;8916;47.086;15.920;2023-04-25T13:48:33;0.55;;;0.50;;
17595;SDS011;8916;47.086;15.920;2023-04-25T13:51:02;1.27;;;0.57;;
17595;SDS011;8916;47.086;15.920;2023-04-25T13:53:31;0.70;;;0.60;;
17595;SDS011;8916;47.086;15.920;2023-04-25T13:56:02;0.73;;;0.50;;
17595;SDS011;8916;47.086;15.920;2023-04-25T13:58:32;0.70;;;0.63;;
17595;SDS011;8916;47.086;15.920;2023-04-25T14:01:01;1.20;;;0.77;;
17595;SDS011;8916;47.086;15.920;2023-04-25T14:03:30;1.92;;;0.50;;
17595;SDS011;8916;47.086;15.920;2023-04-25T14:06:00;0.90;;;0.50;;
17595;SDS011;8916;47.086;15.920;2023-04-25T14:08:29;0.85;;;0.32;;
17595;SDS011;8916;47.086;15.920;2023-04-25T14:10:58;1.02;;;0.57;;
17595;SDS011;8916;47.086;15.920;2023-04-25T14:13:29;1.17;;;0.70;;
17595;SDS011;8916;47.086;15.920;2023-04-25T14:15:58;0.90;;;0.30;;
17595;SDS011;8916;47.086;15.920;2023-04-25T14:18:28;3.65;;;0.60;;
17595;SDS011;8916;47.086;15.920;2023-04-25T14:20:57;0.95;;;0.60;;
17595;SDS011;8916;47.086;15.920;2023-04-25T14:23:27;0.50;;;0.50;;
17595;SDS011;8916;47.086;15.920;2023-04-25T14:25:56;0.60;;;0.60;;
17595;SDS011;8916;47.086;15.920;2023-04-25T14:28:25;0.75;;;0.32;;
17595;SDS011;8916;47.086;15.920;2023-04-25T14:30:55;2.40;;;0.50;;
17595;SDS011;8916;47.086;15.920;2023-04-25T14:33:24;1.60;;;0.55;;
17595;SDS011;8916;47.086;15.920;2023-04-25T14:35:53;1.15;;;0.57;;
17595;SDS011;8916;47.086;15.920;2023-04-25T14:38:23;1.73;;;0.70;;
17595;SDS011;8916;47.086;15.920;2023-04-25T14:40:52;0.60;;;0.60;;
17595;SDS011;8916;47.086;15.920;2023-04-25T14:43:22;0.70;;;0.50;;
17595;SDS011;8916;47.086;15.920;2023-04-25T14:45:51;0.50;;;0.50;;
17595;SDS011;8916;47.086;15.920;2023-04-25T14:48:25;1.52;;;0.70;;
17595;SDS011;8916;47.086;15.920;2023-04-25T14:50:55;2.00;;;0.60;;
17595;SDS011;8916;47.086;15.920;2023-04-25T14:53:24;1.42;;;0.80;;
17595;SDS011;8916;47.086;15.920;2023-04-25T14:55:53;0.63;;;0.60;;
17595;SDS011;8916;47.086;15.920;2023-04-25T14:58:23;1.10;;;0.65;;
17595;SDS011;8916;47.086;15.920;2023-04-25T15:00:52;1.27;;;0.50;;
17595;SDS011;8916;47.086;15.920;2023-04-25T15:03:21;1.10;;;0.70;;
17595;SDS011;8916;47.086;15.920;2023-04-25T15:05:53;1.33;;;0.68;;
17595;SDS011;8916;47.086;15.920;2023-04-25T15:08:23;4.15;;;0.90;;
17595;SDS011;8916;47.086;15.920;2023-04-25T15:10:53;0.75;;;0.50;;
17595;SDS011;8916;47.086;15.920;2023-04-25T15:13:22;3.25;;;1.98;;
17595;SDS011;8916;47.086;15.920;2023-04-25T15:15:51;1.85;;;0.60;;
17595;SDS011;8916;47.086;15.920;2023-04-25T15:18:21;0.60;;;0.60;;
17595;SDS011;8916;47.086;15.920;2023-04-25T15:20:52;0.57;;;0.50;;